Terminal Aerodrome Forecast
Issued by NWS Jacksonville, FL

Home | Current Version | Previous Version | Text Only | Print | Product List | Glossary On
Versions: 1 2 3 4 5 6 7 8 9 10 11 12 13 14 15 16 17 18
000
FTUS42 KJAX 110549
TAFSSI
TAF
KSSI 110549Z 1106/1206 36008KT P6SM SCT025 BKN035
     FM111500 08010KT P6SM VCSH SCT025 BKN040
     FM111900 09009KT P6SM BKN040
     FM112300 07005KT P6SM VCSH SCT015 BKN025=

USA.gov is the U.S. government's official web portal to all federal, state and local government web resources and services.